METAR Data
IDs: Format: Raw Decoded Include TAF

Data at: 2057 UTC 23 Oct 2021

SCSE 232000Z 28011KT CAVOK 16/08 Q1018